Time;durP1;ratioP1;P1;durP2;ratioP2;P2;SDS_P1;SDS_P2;PMS_P1;PMS_P2;Temp;Humidity;BMP_temperature;BMP_pressure;BME280_temperature;BME280_humidity;BME280_pressure;Samples;Min_cycle;Max_cycle;Signal;HPM_P1;HPM_P2
2023/03/23 00:02:29;;;;;;;8.00;1.30;;;8.30;99.90;;;;;;4959240;28;20058;-90
2023/03/23 00:04:55;;;;;;;6.82;0.90;;;8.20;99.90;;;;;;4959178;28;20027;-91
2023/03/23 00:07:22;;;;;;;5.63;1.02;;;8.20;99.90;;;;;;4959245;28;20029;-91
2023/03/23 00:09:52;;;;;;;6.60;1.00;;;8.20;99.90;;;;;;4958468;28;20027;-92
2023/03/23 00:12:32;;;;;;;6.65;1.08;;;8.20;99.90;;;;;;4958476;28;20031;-92
2023/03/23 00:15:02;;;;;;;9.23;1.37;;;8.20;99.90;;;;;;4957841;28;20034;-91
2023/03/23 00:17:29;;;;;;;9.27;1.20;;;8.10;99.90;;;;;;4958358;28;20270;-92
2023/03/23 00:19:56;;;;;;;3.05;0.70;;;8.10;99.90;;;;;;4975146;28;20026;-91
2023/03/23 00:22:24;;;;;;;3.83;0.75;;;8.10;99.90;;;;;;4957877;28;20201;-90
2023/03/23 00:24:51;;;;;;;6.85;1.60;;;8.00;99.90;;;;;;4958540;28;20550;-91
2023/03/23 00:27:17;;;;;;;6.35;1.20;;;8.00;99.90;;;;;;4958841;28;20157;-92
2023/03/23 00:29:44;;;;;;;9.48;1.42;;;8.00;99.90;;;;;;4956284;28;20027;-92
2023/03/23 00:32:16;;;;;;;5.00;1.23;;;8.00;99.90;;;;;;4959320;28;20113;-92
2023/03/23 00:34:43;;;;;;;8.57;1.45;;;7.90;99.90;;;;;;4959334;28;20465;-93
2023/03/23 00:37:10;;;;;;;3.95;1.25;;;7.90;99.90;;;;;;4958800;28;20050;-92
2023/03/23 00:39:38;;;;;;;5.53;0.60;;;7.90;99.90;;;;;;4961568;28;20019;-91
2023/03/23 00:42:05;;;;;;;3.75;1.45;;;7.90;99.90;;;;;;4956905;28;20027;-93
2023/03/23 00:44:34;;;;;;;7.88;1.02;;;7.80;99.90;;;;;;4957665;28;20023;-91
2023/03/23 00:47:01;;;;;;;3.83;1.13;;;7.80;99.90;;;;;;4957554;28;20113;-90
2023/03/23 00:49:27;;;;;;;5.15;1.10;;;7.80;99.90;;;;;;4957905;28;20476;-93
2023/03/23 00:51:54;;;;;;;5.70;1.50;;;7.70;99.90;;;;;;4957504;28;20047;-94
2023/03/23 00:54:20;;;;;;;7.18;1.33;;;7.70;99.90;;;;;;4957555;28;20030;-92
2023/03/23 00:56:47;;;;;;;8.88;1.73;;;7.70;99.90;;;;;;4957464;28;20035;-94
2023/03/23 00:59:12;;;;;;;7.90;1.02;;;7.70;99.90;;;;;;4957812;28;20029;-94
2023/03/23 01:01:38;;;;;;;7.65;0.85;;;7.70;99.90;;;;;;4957480;28;20142;-93
2023/03/23 01:04:04;;;;;;;3.00;0.63;;;7.60;99.90;;;;;;4957200;28;20030;-94
2023/03/23 01:06:34;;;;;;;8.00;1.30;;;7.60;99.90;;;;;;4957624;28;20033;-90
2023/03/23 01:09:03;;;;;;;7.40;0.85;;;7.50;99.90;;;;;;4975266;28;20038;-91
2023/03/23 01:11:29;;;;;;;9.18;1.35;;;7.50;99.90;;;;;;4958605;28;20034;-92
2023/03/23 01:13:55;;;;;;;7.95;0.90;;;7.50;99.90;;;;;;4958503;28;20025;-91
2023/03/23 01:16:21;;;;;;;3.30;1.20;;;7.40;99.90;;;;;;4959503;28;20108;-92
2023/03/23 01:18:46;;;;;;;9.00;1.08;;;7.40;99.90;;;;;;4983302;28;20023;-92
2023/03/23 01:21:17;;;;;;;5.25;0.82;;;7.30;99.90;;;;;;4973307;28;20037;-92
2023/03/23 01:23:42;;;;;;;5.72;0.75;;;7.30;99.90;;;;;;4974566;28;20023;-92
2023/03/23 01:26:29;;;;;;;8.77;1.10;;;7.30;99.90;;;;;;4981577;28;20135;-90
2023/03/23 01:28:55;;;;;;;13.25;1.30;;;7.20;99.90;;;;;;4980279;28;20019;-89
2023/03/23 01:31:23;;;;;;;8.63;1.58;;;7.30;99.90;;;;;;4975853;28;20031;-94
2023/03/23 01:33:54;;;;;;;11.65;1.10;;;7.20;99.90;;;;;;4964470;28;20047;-94
2023/03/23 01:36:23;;;;;;;5.47;1.00;;;7.20;99.90;;;;;;4977154;28;20031;-91
2023/03/23 01:38:49;;;;;;;4.13;1.02;;;7.10;99.90;;;;;;4981694;28;20039;-91
2023/03/23 01:41:16;;;;;;;6.65;1.00;;;7.10;99.90;;;;;;4979191;28;20033;-95
2023/03/23 01:44:03;;;;;;;10.32;1.65;;;7.10;99.90;;;;;;4966025;28;20019;-93
2023/03/23 01:46:33;;;;;;;7.05;1.00;;;7.10;99.90;;;;;;4978985;28;20010;-91
2023/03/23 01:49:10;;;;;;;7.45;1.00;;;7.00;99.90;;;;;;4981180;28;20034;-92
2023/03/23 01:51:41;;;;;;;9.52;1.38;;;7.00;99.90;;;;;;4973587;28;20049;-95
2023/03/23 01:54:13;;;;;;;12.18;1.33;;;6.90;99.90;;;;;;4961541;28;20026;-93
2023/03/23 01:56:47;;;;;;;11.52;1.00;;;6.90;99.90;;;;;;4960869;28;20074;-92
2023/03/23 01:59:13;;;;;;;12.55;1.40;;;6.80;99.90;;;;;;4959810;28;20472;-94
2023/03/23 02:01:44;;;;;;;12.48;1.33;;;6.80;99.90;;;;;;4959868;28;20046;-92
2023/03/23 02:04:14;;;;;;;14.38;2.03;;;6.80;99.90;;;;;;4959489;28;20530;-92
2023/03/23 02:06:40;;;;;;;9.43;1.33;;;6.80;99.90;;;;;;4959082;28;20027;-93
2023/03/23 02:09:06;;;;;;;13.98;2.25;;;6.80;99.90;;;;;;4959007;28;20031;-92
2023/03/23 02:11:32;;;;;;;8.02;1.17;;;6.80;99.90;;;;;;4958665;28;20027;-92
2023/03/23 02:13:58;;;;;;;8.02;1.10;;;6.80;99.90;;;;;;4958059;28;20034;-93
2023/03/23 02:16:36;;;;;;;6.10;1.23;;;6.70;99.90;;;;;;4957946;28;20069;-94
2023/03/23 02:19:27;;;;;;;11.35;1.35;;;6.70;99.90;;;;;;4957751;28;20039;-95
2023/03/23 02:22:08;;;;;;;5.45;1.55;;;6.70;99.90;;;;;;4957825;28;20039;-94
2023/03/23 02:24:59;;;;;;;3.17;0.60;;;6.70;99.90;;;;;;4957380;28;20022;-93
2023/03/23 02:27:43;;;;;;;13.63;2.10;;;6.70;99.90;;;;;;4957710;28;20031;-94
2023/03/23 02:30:33;;;;;;;11.40;1.88;;;6.70;99.90;;;;;;4957201;28;20027;-94
2023/03/23 02:33:29;;;;;;;11.32;1.52;;;6.60;99.90;;;;;;4956782;28;20416;-93
2023/03/23 02:35:59;;;;;;;7.50;1.08;;;6.60;99.90;;;;;;4957740;28;20107;-94
2023/03/23 02:38:35;;;;;;;9.13;1.13;;;6.60;99.90;;;;;;4962285;28;20030;-93
2023/03/23 02:41:02;;;;;;;10.38;1.65;;;6.60;99.90;;;;;;4979262;28;20113;-92
2023/03/23 02:43:33;;;;;;;9.73;1.50;;;6.60;99.90;;;;;;4961441;28;20029;-92
2023/03/23 02:46:00;;;;;;;3.58;1.10;;;6.60;99.90;;;;;;4961322;28;20022;-92
2023/03/23 02:48:29;;;;;;;8.90;1.25;;;6.50;99.90;;;;;;4961867;28;20098;-92
2023/03/23 02:50:56;;;;;;;9.30;1.52;;;6.50;99.90;;;;;;4961555;28;20046;-91
2023/03/23 02:53:24;;;;;;;11.30;1.42;;;6.50;99.90;;;;;;4962081;28;20055;-92
2023/03/23 02:55:52;;;;;;;14.63;1.88;;;6.40;99.90;;;;;;4961892;28;20133;-91
2023/03/23 02:58:19;;;;;;;9.45;1.40;;;6.40;99.90;;;;;;4961652;28;20122;-91
2023/03/23 03:00:49;;;;;;;10.80;1.85;;;6.40;99.90;;;;;;4961383;28;20026;-93
2023/03/23 03:03:21;;;;;;;12.18;1.73;;;6.40;99.90;;;;;;4961244;28;20389;-93
2023/03/23 03:06:31;;;;;;;15.95;1.65;;;6.30;99.90;;;;;;4960453;28;20537;-92
2023/03/23 03:09:35;;;;;;;11.43;1.20;;;6.30;99.90;;;;;;4880464;29;20037;-92
2023/03/23 03:12:10;;;;;;;15.60;1.88;;;6.30;99.90;;;;;;4855494;29;20041;-93
2023/03/23 03:14:46;;;;;;;10.02;1.27;;;6.30;99.90;;;;;;4880155;29;20188;-90
2023/03/23 03:17:25;;;;;;;16.73;2.60;;;6.30;99.90;;;;;;4865059;29;20602;-90
2023/03/23 03:20:09;;;;;;;7.95;0.85;;;6.20;99.90;;;;;;4865111;29;20084;-91
2023/03/23 03:22:37;;;;;;;16.50;3.03;;;6.20;99.90;;;;;;4865687;29;20033;-93
2023/03/23 03:25:05;;;;;;;14.48;2.10;;;6.20;99.90;;;;;;4865796;29;20097;-91
2023/03/23 03:27:32;;;;;;;15.02;1.85;;;6.20;99.90;;;;;;4865822;29;20476;-91
2023/03/23 03:30:01;;;;;;;14.80;2.72;;;6.30;99.90;;;;;;4864710;29;20546;-92
2023/03/23 03:32:38;;;;;;;11.65;1.60;;;6.30;99.90;;;;;;4880109;29;20037;-90
2023/03/23 03:35:05;;;;;;;17.90;2.58;;;6.30;99.90;;;;;;4864593;29;20093;-91
2023/03/23 03:37:39;;;;;;;16.60;2.08;;;6.30;99.90;;;;;;4864825;29;20563;-92
2023/03/23 03:40:11;;;;;;;13.85;2.03;;;6.30;99.90;;;;;;4864858;29;20056;-90
2023/03/23 03:42:41;;;;;;;17.90;3.08;;;6.30;99.90;;;;;;4864731;29;20048;-93
2023/03/23 03:45:16;;;;;;;9.85;1.90;;;6.20;99.90;;;;;;4879825;28;20078;-92
2023/03/23 03:47:42;;;;;;;19.77;1.90;;;6.30;99.90;;;;;;4977231;28;20399;-90
2023/03/23 03:50:08;;;;;;;17.98;1.98;;;6.30;99.90;;;;;;4958937;28;20027;-90
2023/03/23 03:52:35;;;;;;;13.20;1.65;;;6.30;99.90;;;;;;4959379;28;20046;-92
2023/03/23 03:55:01;;;;;;;16.08;2.35;;;6.30;99.90;;;;;;4959884;28;20037;-92
2023/03/23 03:57:27;;;;;;;19.48;1.95;;;6.30;99.90;;;;;;4960955;28;20370;-92
2023/03/23 03:59:52;;;;;;;7.43;1.30;;;6.30;99.90;;;;;;4964394;28;20082;-91
2023/03/23 04:02:19;;;;;;;20.67;2.25;;;6.30;99.90;;;;;;4959628;28;20031;-91
2023/03/23 04:04:49;;;;;;;15.60;2.13;;;6.30;99.90;;;;;;4959416;28;20059;-92
2023/03/23 04:07:16;;;;;;;17.80;1.60;;;6.30;99.90;;;;;;4959113;28;20034;-94
2023/03/23 04:09:43;;;;;;;11.23;2.05;;;6.30;99.90;;;;;;4958935;28;20034;-91
2023/03/23 04:12:08;;;;;;;10.60;1.80;;;6.30;99.90;;;;;;4959383;28;20031;-90
2023/03/23 04:14:34;;;;;;;15.32;1.45;;;6.20;99.90;;;;;;4959293;28;20023;-91
2023/03/23 04:17:00;;;;;;;15.40;1.92;;;6.30;99.90;;;;;;4959558;28;20105;-92
2023/03/23 04:19:28;;;;;;;15.18;2.15;;;6.20;99.90;;;;;;4959593;28;20027;-92
2023/03/23 04:21:54;;;;;;;22.10;2.40;;;6.20;99.90;;;;;;4959159;28;20472;-92
2023/03/23 04:24:21;;;;;;;27.33;3.25;;;6.20;99.90;;;;;;4958934;28;20038;-93
2023/03/23 04:26:47;;;;;;;16.48;2.15;;;6.20;99.90;;;;;;4958830;28;20031;-93
2023/03/23 04:29:12;;;;;;;15.25;2.05;;;6.20;99.90;;;;;;4975947;28;20019;-93
2023/03/23 04:31:39;;;;;;;14.10;1.70;;;6.10;99.90;;;;;;4958625;28;20090;-94
2023/03/23 04:34:05;;;;;;;15.32;2.03;;;6.20;99.90;;;;;;4958695;28;20023;-93
2023/03/23 04:36:33;;;;;;;14.18;1.95;;;6.20;99.90;;;;;;4959181;28;20055;-94
2023/03/23 04:39:00;;;;;;;16.33;2.33;;;6.10;99.90;;;;;;4962855;28;20023;-91
2023/03/23 04:41:26;;;;;;;19.13;2.75;;;6.20;99.90;;;;;;4958964;28;20031;-91
2023/03/23 04:43:53;;;;;;;16.90;2.30;;;6.20;99.90;;;;;;4958652;28;20054;-93
2023/03/23 04:46:21;;;;;;;16.42;2.17;;;6.20;99.90;;;;;;4958223;28;20038;-93
2023/03/23 04:48:47;;;;;;;20.08;2.65;;;6.20;99.90;;;;;;4958493;28;20031;-93
2023/03/23 04:51:13;;;;;;;13.35;1.50;;;6.10;99.90;;;;;;4965318;28;20119;-92
2023/03/23 04:53:39;;;;;;;12.05;1.50;;;6.10;99.90;;;;;;4961796;28;20059;-94
2023/03/23 04:56:05;;;;;;;22.42;2.13;;;6.10;99.90;;;;;;4957928;28;20058;-93
2023/03/23 04:58:33;;;;;;;13.68;1.63;;;6.10;99.90;;;;;;4958183;28;20027;-94
2023/03/23 05:01:00;;;;;;;22.08;3.92;;;6.10;99.90;;;;;;4957890;28;20097;-94
2023/03/23 05:03:26;;;;;;;15.80;2.35;;;6.10;99.90;;;;;;4957291;28;20027;-93
2023/03/23 05:05:53;;;;;;;20.27;2.17;;;6.10;99.90;;;;;;4957834;28;20031;-94
2023/03/23 05:08:24;;;;;;;17.50;2.67;;;6.10;99.90;;;;;;4957691;28;20065;-93
2023/03/23 05:10:58;;;;;;;22.05;2.38;;;6.10;99.90;;;;;;4957830;28;20042;-92
2023/03/23 05:13:24;;;;;;;21.05;3.28;;;6.10;99.90;;;;;;4958141;28;20417;-92
2023/03/23 05:15:50;;;;;;;23.58;2.40;;;6.10;99.90;;;;;;4957574;28;20100;-93
2023/03/23 05:18:16;;;;;;;16.52;2.22;;;6.10;99.90;;;;;;4957708;28;20544;-92
2023/03/23 05:20:42;;;;;;;19.80;1.75;;;6.10;99.90;;;;;;4957870;28;20174;-90
2023/03/23 05:23:09;;;;;;;18.02;2.70;;;6.10;99.90;;;;;;4957496;28;20489;-93
2023/03/23 05:25:39;;;;;;;9.35;1.73;;;6.00;99.90;;;;;;4957489;28;20114;-93
2023/03/23 05:28:06;;;;;;;17.00;2.20;;;6.00;99.90;;;;;;4957752;28;20481;-93
2023/03/23 05:30:32;;;;;;;26.13;2.55;;;6.00;99.90;;;;;;4957516;28;20023;-92
2023/03/23 05:32:59;;;;;;;23.88;3.65;;;6.00;99.90;;;;;;4957521;28;20037;-93
2023/03/23 05:35:25;;;;;;;12.05;2.15;;;6.00;99.90;;;;;;4958348;28;20045;-93
2023/03/23 05:37:53;;;;;;;19.58;3.83;;;5.90;99.90;;;;;;4958165;28;20027;-93
2023/03/23 05:40:19;;;;;;;19.17;2.53;;;5.90;99.90;;;;;;4957583;28;20069;-92
2023/03/23 05:42:45;;;;;;;20.52;3.28;;;6.00;99.90;;;;;;4957618;28;20481;-91
2023/03/23 05:45:12;;;;;;;17.77;1.85;;;6.00;99.90;;;;;;4957613;28;20042;-91
2023/03/23 05:47:39;;;;;;;16.60;2.30;;;6.00;99.90;;;;;;4957613;28;20078;-90
2023/03/23 05:50:08;;;;;;;13.35;2.30;;;6.00;99.90;;;;;;4956531;28;20090;-93
2023/03/23 05:52:35;;;;;;;16.45;2.90;;;6.00;99.90;;;;;;4954943;28;20046;-93
2023/03/23 05:55:03;;;;;;;25.42;2.92;;;6.00;99.90;;;;;;4956529;28;20034;-91
2023/03/23 05:57:29;;;;;;;16.92;2.42;;;6.00;99.90;;;;;;4956658;28;20043;-92
2023/03/23 05:59:57;;;;;;;20.55;2.78;;;6.00;99.90;;;;;;4956468;28;20023;-93
2023/03/23 06:02:24;;;;;;;16.90;1.45;;;6.00;99.90;;;;;;4956536;28;20026;-92
2023/03/23 06:04:50;;;;;;;25.23;2.53;;;6.00;99.90;;;;;;4957090;28;20114;-92
2023/03/23 06:07:16;;;;;;;22.70;2.63;;;6.00;99.90;;;;;;4957296;28;20099;-91
2023/03/23 06:09:42;;;;;;;20.02;2.28;;;6.00;99.90;;;;;;4957266;28;20019;-91
2023/03/23 06:12:09;;;;;;;22.33;2.25;;;6.00;99.90;;;;;;4957246;28;20022;-91
2023/03/23 06:14:36;;;;;;;17.25;2.53;;;6.00;99.90;;;;;;4957427;28;20089;-92
2023/03/23 06:17:02;;;;;;;22.45;3.08;;;5.90;99.90;;;;;;4958200;28;20398;-91
2023/03/23 06:19:27;;;;;;;14.90;2.60;;;6.00;99.90;;;;;;4958044;28;20495;-93
2023/03/23 06:21:56;;;;;;;24.00;2.63;;;5.90;99.90;;;;;;4957647;28;20027;-94
2023/03/23 06:24:22;;;;;;;24.52;2.30;;;5.90;99.90;;;;;;4957752;28;20031;-93
2023/03/23 06:26:49;;;;;;;29.05;3.00;;;5.90;99.90;;;;;;4957456;28;20027;-92
2023/03/23 06:29:16;;;;;;;20.08;3.35;;;5.90;99.90;;;;;;4957578;28;20030;-92
2023/03/23 06:31:49;;;;;;;21.70;3.97;;;6.00;99.90;;;;;;4957621;28;20034;-92
2023/03/23 06:34:14;;;;;;;20.92;2.55;;;5.90;99.90;;;;;;4957569;28;20066;-92
2023/03/23 06:36:43;;;;;;;29.33;3.38;;;5.90;99.90;;;;;;4958278;28;20034;-93
2023/03/23 06:39:09;;;;;;;32.20;3.45;;;5.90;99.90;;;;;;4958294;28;20022;-92
2023/03/23 06:41:35;;;;;;;25.05;3.17;;;5.90;99.90;;;;;;4960354;28;20027;-91
2023/03/23 06:44:01;;;;;;;20.48;2.35;;;5.90;99.90;;;;;;4961023;28;20584;-93
2023/03/23 06:46:27;;;;;;;21.15;2.30;;;5.90;99.90;;;;;;4958153;28;20027;-92
2023/03/23 06:48:54;;;;;;;27.95;2.83;;;5.90;99.90;;;;;;4957587;28;20054;-92
2023/03/23 06:51:20;;;;;;;18.85;3.67;;;5.90;99.90;;;;;;4957689;28;20527;-91
2023/03/23 06:53:46;;;;;;;21.23;2.65;;;5.90;99.90;;;;;;4957965;28;20037;-92
2023/03/23 06:56:13;;;;;;;21.65;3.35;;;6.00;99.90;;;;;;4957588;28;20038;-92
2023/03/23 06:58:39;;;;;;;21.45;2.92;;;5.90;99.90;;;;;;4957578;28;20023;-91
2023/03/23 07:01:05;;;;;;;31.85;2.72;;;6.00;99.90;;;;;;4957665;28;20119;-93
2023/03/23 07:03:31;;;;;;;19.63;2.13;;;6.00;99.90;;;;;;4958017;28;20022;-93
2023/03/23 07:05:58;;;;;;;28.40;2.50;;;6.00;99.90;;;;;;4957988;28;20126;-92
2023/03/23 07:08:24;;;;;;;24.45;2.75;;;6.00;99.90;;;;;;4956518;28;20025;-93
2023/03/23 07:10:54;;;;;;;24.75;2.50;;;6.10;99.90;;;;;;4956524;28;20019;-91
2023/03/23 07:13:20;;;;;;;18.23;3.03;;;6.10;99.90;;;;;;4956073;28;20073;-91
2023/03/23 07:15:46;;;;;;;26.00;2.78;;;6.10;99.90;;;;;;4956259;28;20035;-92
2023/03/23 07:18:11;;;;;;;26.75;4.03;;;6.10;99.90;;;;;;4956474;28;20050;-92
2023/03/23 07:20:37;;;;;;;24.65;2.97;;;6.20;99.90;;;;;;4956184;28;20153;-93
2023/03/23 07:23:05;;;;;;;15.63;2.95;;;6.20;99.90;;;;;;4956154;28;20026;-93
2023/03/23 07:25:32;;;;;;;16.77;1.88;;;6.20;99.90;;;;;;4957765;28;20030;-93
2023/03/23 07:27:59;;;;;;;16.67;2.20;;;6.30;99.90;;;;;;4959735;28;20097;-93
2023/03/23 07:30:26;;;;;;;21.40;2.42;;;6.30;99.90;;;;;;4957177;28;20027;-92
2023/03/23 07:32:53;;;;;;;27.77;4.70;;;6.40;99.90;;;;;;4959332;28;20034;-90
2023/03/23 07:35:19;;;;;;;20.10;3.35;;;6.40;99.90;;;;;;4976715;28;20050;-92
2023/03/23 07:37:45;;;;;;;23.05;3.30;;;6.50;99.90;;;;;;4960077;28;20397;-93
2023/03/23 07:40:14;;;;;;;16.80;2.58;;;6.50;99.90;;;;;;4959883;28;20023;-92
2023/03/23 07:42:42;;;;;;;22.85;2.75;;;6.60;99.90;;;;;;4959709;28;20505;-91
2023/03/23 07:45:08;;;;;;;21.35;3.00;;;6.60;99.90;;;;;;4959213;28;20393;-93
2023/03/23 07:47:34;;;;;;;30.38;5.78;;;6.70;99.90;;;;;;4959223;28;20038;-93
2023/03/23 07:50:00;;;;;;;22.73;2.97;;;6.70;99.90;;;;;;4959188;28;20038;-93
2023/03/23 07:52:25;;;;;;;28.77;5.30;;;6.80;99.90;;;;;;4959938;28;20047;-93
2023/03/23 07:54:51;;;;;;;27.42;3.72;;;6.80;99.90;;;;;;4959683;28;20468;-93
2023/03/23 07:57:16;;;;;;;19.45;2.75;;;6.90;99.90;;;;;;4958911;28;20061;-93
2023/03/23 07:59:42;;;;;;;24.67;3.45;;;6.90;99.90;;;;;;4959984;28;20026;-92
2023/03/23 08:02:09;;;;;;;21.00;3.42;;;7.00;99.90;;;;;;4959407;28;20392;-93
2023/03/23 08:04:37;;;;;;;23.77;2.70;;;7.00;99.90;;;;;;4958266;28;20392;-92
2023/03/23 08:07:06;;;;;;;12.00;2.10;;;7.10;99.90;;;;;;4975812;28;20050;-94
2023/03/23 08:09:32;;;;;;;20.45;3.05;;;7.10;99.90;;;;;;4959504;28;20034;-93
2023/03/23 08:11:58;;;;;;;31.25;4.57;;;7.20;99.90;;;;;;4961973;28;20019;-93
2023/03/23 08:14:28;;;;;;;18.98;3.63;;;7.20;99.90;;;;;;4971493;28;20376;-93
2023/03/23 08:16:55;;;;;;;20.37;3.47;;;7.30;99.90;;;;;;4960768;28;20043;-94
2023/03/23 08:19:22;;;;;;;19.52;2.53;;;7.40;99.90;;;;;;4964940;28;20350;-94
2023/03/23 08:21:49;;;;;;;25.10;3.45;;;7.50;99.90;;;;;;4962342;28;20069;-93
2023/03/23 08:24:14;;;;;;;15.10;1.80;;;7.60;99.90;;;;;;4963157;28;20019;-94
2023/03/23 08:26:41;;;;;;;23.08;2.70;;;7.60;99.90;;;;;;4965029;28;20033;-93
2023/03/23 08:29:08;;;;;;;23.38;3.50;;;7.70;99.90;;;;;;4968828;28;20026;-93
2023/03/23 08:31:35;;;;;;;22.23;2.30;;;7.70;99.90;;;;;;4987084;28;20086;-94
2023/03/23 08:34:04;;;;;;;33.25;4.43;;;7.70;99.90;;;;;;4971015;28;20031;-95
2023/03/23 08:36:34;;;;;;;22.80;3.03;;;7.80;99.90;;;;;;4987667;28;20047;-91
2023/03/23 08:39:00;;;;;;;35.53;3.40;;;7.80;99.90;;;;;;4981762;28;20038;-89
2023/03/23 08:41:26;;;;;;;20.20;3.25;;;7.80;99.90;;;;;;4981155;28;20027;-89
2023/03/23 08:43:54;;;;;;;30.02;3.45;;;7.80;99.90;;;;;;4997315;28;20015;-91
2023/03/23 08:46:19;;;;;;;17.17;3.25;;;7.90;99.90;;;;;;4978970;28;20033;-89
2023/03/23 08:48:46;;;;;;;14.93;2.30;;;7.90;99.90;;;;;;4979634;28;20102;-93
2023/03/23 08:51:13;;;;;;;26.20;2.90;;;8.00;99.90;;;;;;4981623;28;20031;-89
2023/03/23 08:53:41;;;;;;;14.80;3.67;;;8.10;99.90;;;;;;4982288;28;20018;-89
2023/03/23 08:56:09;;;;;;;19.75;2.92;;;8.20;99.90;;;;;;4980914;28;20137;-93
2023/03/23 08:58:36;;;;;;;21.25;2.90;;;8.30;99.90;;;;;;4977905;28;20019;-96
2023/03/23 09:01:06;;;;;;;24.33;2.80;;;8.50;99.90;;;;;;4976201;28;20031;-94
2023/03/23 09:03:33;;;;;;;20.73;2.63;;;8.60;99.90;;;;;;4977828;28;20007;-92
2023/03/23 09:06:07;;;;;;;19.13;3.17;;;8.70;99.90;;;;;;4980256;28;20038;-93
2023/03/23 09:08:35;;;;;;;22.27;2.45;;;8.90;99.90;;;;;;4972476;28;20106;-96
2023/03/23 09:11:06;;;;;;;19.25;2.70;;;8.90;99.90;;;;;;4969214;28;20031;-95
2023/03/23 09:13:33;;;;;;;23.77;3.45;;;9.00;99.90;;;;;;4971827;28;20050;-95
2023/03/23 09:15:59;;;;;;;27.80;3.72;;;9.10;99.90;;;;;;4967414;28;20050;-96
2023/03/23 09:18:28;;;;;;;20.58;3.20;;;9.10;99.90;;;;;;4979905;28;20019;-93
2023/03/23 09:20:54;;;;;;;11.70;3.05;;;9.20;99.90;;;;;;4965766;29;20042;-94
2023/03/23 09:23:20;;;;;;;24.35;2.65;;;9.30;99.90;;;;;;4964645;29;20027;-92
2023/03/23 09:25:46;;;;;;;11.45;2.47;;;9.30;99.90;;;;;;4960119;28;20128;-94
2023/03/23 09:28:13;;;;;;;13.38;2.15;;;9.40;99.90;;;;;;4974152;28;20038;-93
2023/03/23 09:30:40;;;;;;;13.85;2.33;;;9.40;99.90;;;;;;4970653;28;20031;-95
2023/03/23 09:33:13;;;;;;;23.23;2.75;;;9.40;99.90;;;;;;4976010;28;20038;-93
2023/03/23 09:35:41;;;;;;;17.40;3.08;;;9.30;99.90;;;;;;4972344;28;20039;-95
2023/03/23 09:38:08;;;;;;;26.38;3.38;;;9.40;99.90;;;;;;4962230;29;20031;-95
2023/03/23 09:40:48;;;;;;;17.45;3.40;;;9.40;99.90;;;;;;4963355;28;20015;-93
2023/03/23 09:43:45;;;;;;;23.77;4.63;;;9.40;99.90;;;;;;4970067;28;20023;-92
2023/03/23 09:46:33;;;;;;;19.35;4.18;;;9.40;99.90;;;;;;4958451;28;20035;-94
2023/03/23 09:49:02;;;;;;;34.72;2.95;;;9.40;99.90;;;;;;4956328;28;20034;-93
2023/03/23 09:51:52;;;;;;;17.85;3.00;;;9.40;99.90;;;;;;4970106;28;20070;-95
2023/03/23 09:54:35;;;;;;;14.13;2.10;;;9.40;99.90;;;;;;4966820;28;20082;-94
2023/03/23 09:57:01;;;;;;;16.80;3.33;;;9.40;99.90;;;;;;4960102;28;20042;-91
2023/03/23 09:59:41;;;;;;;16.50;3.35;;;9.40;99.90;;;;;;4977232;28;20090;-91
2023/03/23 10:02:17;;;;;;;19.75;4.47;;;9.40;99.90;;;;;;4974239;28;20046;-93
2023/03/23 10:04:49;;;;;;;13.70;3.05;;;9.40;99.90;;;;;;4970884;28;20050;-93
2023/03/23 10:07:17;;;;;;;15.40;3.70;;;9.50;99.90;;;;;;4968688;28;20007;-90
2023/03/23 10:09:45;;;;;;;15.45;2.75;;;9.50;99.90;;;;;;4970710;28;20018;-92
2023/03/23 10:12:34;;;;;;;16.75;2.17;;;9.50;99.90;;;;;;4963626;28;20011;-94
2023/03/23 10:15:16;;;;;;;25.63;4.15;;;9.60;99.90;;;;;;4979554;28;20054;-94
2023/03/23 10:17:59;;;;;;;17.73;2.50;;;9.70;99.90;;;;;;4973993;28;20046;-91
2023/03/23 10:20:33;;;;;;;24.00;3.47;;;9.70;99.90;;;;;;4972404;28;20059;-93
2023/03/23 10:23:21;;;;;;;24.92;3.65;;;9.90;99.90;;;;;;4970275;28;20461;-95
2023/03/23 10:26:00;;;;;;;16.73;3.17;;;10.00;99.90;;;;;;4986297;28;20054;-95
2023/03/23 10:28:52;;;;;;;21.90;3.08;;;10.00;99.90;;;;;;4976727;28;20030;-93
2023/03/23 10:31:35;;;;;;;23.88;4.32;;;10.00;99.90;;;;;;4961720;28;20010;-93
2023/03/23 10:34:34;;;;;;;23.45;3.03;;;10.00;99.90;;;;;;4970019;28;20027;-93
2023/03/23 10:37:12;;;;;;;17.52;2.97;;;10.20;99.90;;;;;;4960103;28;20039;-92
2023/03/23 10:39:59;;;;;;;16.77;2.92;;;10.40;99.90;;;;;;4969875;28;20129;-90
2023/03/23 10:42:31;;;;;;;15.20;2.55;;;10.70;99.90;;;;;;4978207;28;20011;-91
2023/03/23 10:45:00;;;;;;;22.02;4.65;;;11.00;99.90;;;;;;4988595;28;20092;-93
2023/03/23 10:47:28;;;;;;;27.75;3.95;;;11.20;99.90;;;;;;4994219;28;20083;-93
2023/03/23 10:50:04;;;;;;;24.60;2.28;;;11.30;99.90;;;;;;4992243;28;20022;-93
2023/03/23 10:52:39;;;;;;;12.90;3.58;;;11.40;99.90;;;;;;4990827;28;20043;-94
2023/03/23 10:55:18;;;;;;;20.13;4.28;;;11.50;99.90;;;;;;4968535;28;20035;-95
2023/03/23 10:58:01;;;;;;;12.13;2.22;;;11.50;99.90;;;;;;4968102;28;20026;-94
2023/03/23 11:00:28;;;;;;;22.33;2.72;;;11.50;99.90;;;;;;4969690;28;20007;-91
2023/03/23 11:03:06;;;;;;;17.38;3.10;;;11.50;99.90;;;;;;4966458;28;20179;-92
2023/03/23 11:06:03;;;;;;;14.23;3.08;;;11.50;99.90;;;;;;4983636;28;20027;-90
2023/03/23 11:08:38;;;;;;;15.93;2.55;;;11.60;99.90;;;;;;4963654;28;20031;-93
2023/03/23 11:11:21;;;;;;;16.25;2.70;;;11.70;99.90;;;;;;4986179;28;20019;-93
2023/03/23 11:13:51;;;;;;;15.88;3.20;;;11.70;99.90;;;;;;4965411;28;20039;-96
2023/03/23 11:16:30;;;;;;;17.60;2.97;;;11.60;99.90;;;;;;4960470;28;20085;-95
2023/03/23 11:19:11;;;;;;;11.57;1.98;;;11.50;99.90;;;;;;4946611;28;20027;-96
2023/03/23 11:21:38;;;;;;;14.93;2.35;;;11.40;99.90;;;;;;4980151;28;20022;-95
2023/03/23 11:24:07;;;;;;;18.33;2.53;;;11.20;99.90;;;;;;4970857;28;20038;-93
2023/03/23 11:26:37;;;;;;;25.05;3.33;;;11.00;99.90;;;;;;4981187;28;20031;-92
2023/03/23 11:29:24;;;;;;;10.27;1.98;;;10.90;99.90;;;;;;4967460;28;20030;-95
2023/03/23 11:32:12;;;;;;;11.88;1.80;;;10.70;99.90;;;;;;4964399;28;20038;-92
2023/03/23 11:34:47;;;;;;;5.32;1.17;;;10.40;99.90;;;;;;4982531;28;20118;-90
2023/03/23 11:37:32;;;;;;;10.43;2.30;;;10.20;99.90;;;;;;4983624;28;20031;-87
2023/03/23 11:40:05;;;;;;;3.08;1.00;;;9.90;99.90;;;;;;4989574;28;20018;-85
2023/03/23 11:43:07;;;;;;;5.80;0.88;;;9.80;99.90;;;;;;4997973;28;20031;-90
2023/03/23 11:45:36;;;;;;;2.63;1.00;;;9.80;99.90;;;;;;4989188;28;20015;-85
2023/03/23 11:48:14;;;;;;;9.48;1.27;;;10.10;99.90;;;;;;4980578;28;20042;-88
2023/03/23 11:50:54;;;;;;;13.45;1.60;;;10.40;99.90;;;;;;4981523;28;20054;-88
2023/03/23 11:53:40;;;;;;;8.23;1.48;;;10.90;99.90;;;;;;4967224;28;20031;-93
2023/03/23 11:56:30;;;;;;;6.20;1.45;;;11.50;99.90;;;;;;4965450;28;20046;-90
2023/03/23 11:58:57;;;;;;;10.15;1.35;;;12.10;99.90;;;;;;4965546;28;20034;-96
2023/03/23 12:01:48;;;;;;;13.32;3.22;;;12.70;99.90;;;;;;4977300;28;20035;-96
2023/03/23 12:04:45;;;;;;;12.82;2.17;;;13.20;99.90;;;;;;4982068;28;20090;-94
2023/03/23 12:07:16;;;;;;;17.92;2.13;;;13.60;99.90;;;;;;4974762;28;20095;-94
2023/03/23 12:10:15;;;;;;;14.25;2.92;;;13.80;99.90;;;;;;4976492;28;20057;-91
2023/03/23 12:12:51;;;;;;;17.33;2.65;;;13.80;99.90;;;;;;4963594;28;20067;-93
2023/03/23 12:15:38;;;;;;;14.40;2.28;;;13.80;99.90;;;;;;4982389;28;20031;-94
2023/03/23 12:18:19;;;;;;;17.83;2.63;;;13.70;99.90;;;;;;4980665;28;20066;-92
2023/03/23 12:20:51;;;;;;;;;;;13.60;99.90;;;;;;4991257;28;20073;-92
2023/03/23 12:23:25;;;;;;;14.60;2.05;;;13.20;99.90;;;;;;4989658;28;19902;-88
2023/03/23 12:25:57;;;;;;;22.80;2.88;;;12.90;99.90;;;;;;4977763;28;20067;-92
2023/03/23 12:29:02;;;;;;;12.35;2.20;;;12.50;99.90;;;;;;4971278;28;20015;-88
2023/03/23 12:31:37;;;;;;;11.27;1.65;;;12.10;99.90;;;;;;4978017;28;20034;-88
2023/03/23 12:34:41;;;;;;;7.72;1.95;;;11.90;99.90;;;;;;4982652;28;20021;-89
2023/03/23 12:37:26;;;;;;;8.60;1.40;;;11.50;99.90;;;;;;4998069;28;20047;-96
2023/03/23 12:40:10;;;;;;;11.57;1.13;;;11.10;99.90;;;;;;4976159;28;20090;-88
2023/03/23 12:42:48;;;;;;;9.45;1.38;;;10.80;99.90;;;;;;4968663;28;20050;-88
2023/03/23 12:45:42;;;;;;;14.80;2.97;;;10.60;99.90;;;;;;4986842;28;20081;-95
2023/03/23 12:48:13;;;;;;;8.70;1.38;;;10.50;99.90;;;;;;5007905;28;20022;-90
2023/03/23 12:50:46;;;;;;;8.15;1.52;;;10.60;99.90;;;;;;4981143;28;20040;-87
2023/03/23 12:53:29;;;;;;;6.35;1.90;;;10.90;99.90;;;;;;4985295;28;20106;-91
2023/03/23 12:56:15;;;;;;;6.65;1.60;;;11.50;99.90;;;;;;4972287;28;20034;-96
2023/03/23 12:59:16;;;;;;;9.45;1.60;;;12.10;99.90;;;;;;4971906;28;20043;-91
2023/03/23 13:01:47;;;;;;;9.07;1.52;;;12.40;99.90;;;;;;4982044;28;20039;-95
2023/03/23 13:04:33;;;;;;;7.05;1.20;;;12.60;99.90;;;;;;4962577;28;20046;-90
2023/03/23 13:07:05;;;;;;;14.40;1.98;;;12.80;99.90;;;;;;4978921;28;20015;-92
2023/03/23 13:09:55;;;;;;;7.40;1.55;;;12.90;99.90;;;;;;4977466;28;20054;-94
2023/03/23 13:12:21;;;;;;;12.75;2.33;;;12.80;99.90;;;;;;4982276;28;20023;-93